Atlantic, Virginia
Current Conditions -  °F | °C
As of 11:08 PM on Tuesday 21 Oct 2014 (Local Time) from KWAL Reporting Station
Thunderstorm Thunderstorm  
Wind Chill: 57°   Ceiling: 3200
Heat Index: 57°   Visibility: 1.7mi
Dew Point: 56°   Wind: 13mph
Humidity: 96%   Direction: 320°NW
Pressure: 29.87"   Gusts: NA
Location:  37.9°N, 75.51°W
Report Text: KWAL 220308Z AUTO 32011KT 1 3/4SM +TSRA BR FEW014 BKN032 OVC080 14/13 A2987 RMK AO2 TSB00 P0016 T01390133
Loading
Personal Weather Stations






























Interactive Weather Map
Tropical Storm Tracking
New forecast layout! Learn more

10-Day Weather Forecast

Advertisements
Track Severe Weather on mobile